createdAt,value
2023-05-24T00:00:53.424Z,47.90
2023-05-24T00:03:21.661Z,48.04
2023-05-24T00:05:50.068Z,48.79
2023-05-24T00:08:19.529Z,48.70
2023-05-24T00:10:48.596Z,48.70
2023-05-24T00:13:17.162Z,48.63
2023-05-24T00:15:46.681Z,49.08
2023-05-24T00:18:14.674Z,48.75
2023-05-24T00:20:42.969Z,48.77
2023-05-24T00:23:11.212Z,48.52
2023-05-24T00:25:40.532Z,48.52
2023-05-24T00:28:08.607Z,48.14
2023-05-24T00:30:36.579Z,48.76
2023-05-24T00:33:04.672Z,48.23
2023-05-24T00:35:32.811Z,48.52
2023-05-24T00:38:00.868Z,48.26
2023-05-24T00:40:28.848Z,48.18
2023-05-24T00:42:58.359Z,48.28
2023-05-24T00:45:26.424Z,48.54
2023-05-24T00:47:54.507Z,48.80
2023-05-24T00:50:22.717Z,48.63
2023-05-24T00:52:51.101Z,48.79
2023-05-24T00:55:19.209Z,48.45
2023-05-24T00:57:47.279Z,48.78
2023-05-24T01:00:17.293Z,48.45
2023-05-24T01:02:45.712Z,48.53
2023-05-24T01:05:14.465Z,48.58
2023-05-24T01:08:00.942Z,47.93
2023-05-24T01:10:33.805Z,48.12
2023-05-24T01:13:05.819Z,47.94
2023-05-24T01:15:42.100Z,48.23
2023-05-24T01:18:16.524Z,48.59
2023-05-24T01:20:46.855Z,48.46
2023-05-24T01:23:34.519Z,48.05
2023-05-24T01:26:09.490Z,48.83
2023-05-24T01:28:38.945Z,48.62
2023-05-24T01:31:07.034Z,48.19
2023-05-24T01:33:35.122Z,48.32
2023-05-24T01:36:03.189Z,48.22
2023-05-24T01:38:31.223Z,48.41
2023-05-24T01:41:00.970Z,48.29
2023-05-24T01:43:32.381Z,48.56
2023-05-24T01:46:04.802Z,48.90
2023-05-24T01:48:35.743Z,48.59
2023-05-24T01:51:07.322Z,48.29
2023-05-24T01:53:36.034Z,48.38
2023-05-24T01:56:04.963Z,48.45
2023-05-24T01:58:33.019Z,48.49
2023-05-24T02:01:02.520Z,48.89
2023-05-24T02:03:30.612Z,49.02
2023-05-24T02:05:58.667Z,48.54
2023-05-24T02:08:26.792Z,48.96
2023-05-24T02:10:54.985Z,49.01
2023-05-24T02:13:23.103Z,48.61
2023-05-24T02:15:53.857Z,48.56
2023-05-24T02:18:23.359Z,48.53
2023-05-24T02:20:54.404Z,48.72
2023-05-24T02:23:22.510Z,48.61
2023-05-24T02:25:50.618Z,48.79
2023-05-24T02:28:18.622Z,48.59
2023-05-24T02:30:47.037Z,49.10
2023-05-24T02:33:15.128Z,48.79
2023-05-24T02:35:44.618Z,49.27
2023-05-24T02:38:12.679Z,48.97
2023-05-24T02:40:41.141Z,48.62
2023-05-24T02:43:09.818Z,48.77
2023-05-24T02:45:38.028Z,49.02
2023-05-24T02:48:06.455Z,48.62
2023-05-24T02:50:34.630Z,48.76
2023-05-24T02:53:04.241Z,48.77
2023-05-24T02:55:32.963Z,49.01
2023-05-24T02:58:01.270Z,49.32
2023-05-24T03:00:29.374Z,48.62
2023-05-24T03:03:02.721Z,48.67
2023-05-24T03:05:30.859Z,49.43
2023-05-24T03:07:59.062Z,48.72
2023-05-24T03:10:28.554Z,48.63
2023-05-24T03:12:56.681Z,48.55
2023-05-24T03:15:24.727Z,48.66
2023-05-24T03:17:52.954Z,48.76
2023-05-24T03:20:21.728Z,48.64
2023-05-24T03:22:49.829Z,48.39
2023-05-24T03:25:17.901Z,48.63
2023-05-24T03:27:47.401Z,48.89
2023-05-24T03:30:15.556Z,48.63
2023-05-24T03:32:43.620Z,48.45
2023-05-24T03:35:12.352Z,48.43
2023-05-24T03:37:40.675Z,48.57
2023-05-24T03:40:10.057Z,48.64
2023-05-24T03:42:38.173Z,48.51
2023-05-24T03:45:08.891Z,48.49
2023-05-24T03:47:36.894Z,48.41
2023-05-24T03:50:07.294Z,48.48
2023-05-24T03:52:35.374Z,48.50
2023-05-24T03:55:03.389Z,48.64
2023-05-24T03:57:31.357Z,48.39
2023-05-24T04:00:00.409Z,48.36
2023-05-24T04:02:30.570Z,48.42
2023-05-24T04:04:58.813Z,48.58
2023-05-24T04:07:26.946Z,48.62
2023-05-24T04:09:55.005Z,48.58
2023-05-24T04:12:23.029Z,48.59
2023-05-24T04:14:51.915Z,48.91
2023-05-24T04:17:20.180Z,48.59
2023-05-24T04:19:49.734Z,48.66
2023-05-24T04:22:18.691Z,48.47
2023-05-24T04:24:46.908Z,48.54
2023-05-24T04:27:15.140Z,48.45
2023-05-24T04:29:43.315Z,48.60
2023-05-24T04:32:14.984Z,48.50
2023-05-24T04:34:43.813Z,48.55
2023-05-24T04:37:13.913Z,48.56
2023-05-24T04:39:43.584Z,48.52
2023-05-24T04:42:11.887Z,48.64
2023-05-24T04:44:41.508Z,48.58
2023-05-24T04:47:10.741Z,48.89
2023-05-24T04:49:39.135Z,48.92
2023-05-24T04:52:07.975Z,48.70
2023-05-24T04:54:37.454Z,48.82
2023-05-24T04:57:05.747Z,48.83
2023-05-24T04:59:33.773Z,48.78
2023-05-24T05:02:01.726Z,48.69
2023-05-24T05:04:29.886Z,48.47
2023-05-24T05:06:58.575Z,48.44
2023-05-24T05:09:27.963Z,48.55
2023-05-24T05:11:58.594Z,48.47
2023-05-24T05:14:26.789Z,48.50
2023-05-24T05:16:54.990Z,48.37
2023-05-24T05:19:23.272Z,48.56
2023-05-24T05:21:51.861Z,48.54
2023-05-24T05:24:20.235Z,48.57
2023-05-24T05:26:48.350Z,48.47
2023-05-24T05:29:17.807Z,48.66
2023-05-24T05:31:45.935Z,48.53
2023-05-24T05:34:14.108Z,48.51
2023-05-24T05:36:42.735Z,48.22
2023-05-24T05:39:10.817Z,48.58
2023-05-24T05:41:40.018Z,48.75
2023-05-24T05:44:08.210Z,48.76
2023-05-24T05:46:37.672Z,48.86
2023-05-24T05:49:06.526Z,49.00
2023-05-24T05:51:34.602Z,48.86
2023-05-24T05:54:02.740Z,48.98
2023-05-24T05:56:30.872Z,48.82
2023-05-24T05:58:58.909Z,48.92
2023-05-24T06:01:27.099Z,48.74
2023-05-24T06:03:56.574Z,48.46
2023-05-24T06:06:24.621Z,48.46
2023-05-24T06:08:52.684Z,48.54
2023-05-24T06:11:21.154Z,48.68
2023-05-24T06:13:49.377Z,48.42
2023-05-24T06:16:18.507Z,48.28
2023-05-24T06:18:57.103Z,48.34
2023-05-24T06:21:37.175Z,48.45
2023-05-24T06:24:05.729Z,48.21
2023-05-24T06:26:33.913Z,48.42
2023-05-24T06:29:02.491Z,48.31
2023-05-24T06:31:30.584Z,48.33
2023-05-24T06:36:30.852Z,48.22
2023-05-24T06:39:00.251Z,48.53
2023-05-24T06:41:28.684Z,48.42
2023-05-24T06:43:56.818Z,48.34
2023-05-24T06:46:24.904Z,48.52
2023-05-24T06:48:53.136Z,48.29
2023-05-24T06:51:21.332Z,48.54
2023-05-24T06:53:49.426Z,48.70
2023-05-24T06:56:18.957Z,48.59
2023-05-24T06:58:47.042Z,48.68
2023-05-24T07:01:15.970Z,48.75
2023-05-24T07:03:44.271Z,48.75
2023-05-24T07:06:14.218Z,48.62
2023-05-24T07:08:46.378Z,48.52
2023-05-24T07:11:14.576Z,48.60
2023-05-24T07:13:44.511Z,48.67
2023-05-24T07:16:13.003Z,48.38
2023-05-24T07:18:41.925Z,48.45
2023-05-24T07:21:10.228Z,48.55
2023-05-24T07:23:38.766Z,48.88
2023-05-24T07:26:07.631Z,48.76
2023-05-24T07:28:37.935Z,48.73
2023-05-24T07:31:08.390Z,48.94
2023-05-24T07:33:37.667Z,48.86
2023-05-24T07:36:06.930Z,48.95
2023-05-24T07:38:36.232Z,48.99
2023-05-24T07:41:04.908Z,48.98
2023-05-24T07:43:33.194Z,49.57
2023-05-24T07:46:01.356Z,48.94
2023-05-24T07:48:30.988Z,49.24
2023-05-24T07:50:59.223Z,49.19
2023-05-24T07:53:27.472Z,49.28
2023-05-24T07:55:56.938Z,49.35
2023-05-24T07:58:25.095Z,49.25
2023-05-24T08:00:53.671Z,49.42
2023-05-24T08:03:22.005Z,49.36
2023-05-24T08:05:51.954Z,50.21
2023-05-24T08:08:20.844Z,50.61
2023-05-24T08:10:48.994Z,51.02
2023-05-24T08:13:16.981Z,51.06
2023-05-24T08:15:46.036Z,51.45
2023-05-24T08:18:14.628Z,51.49
2023-05-24T08:20:42.805Z,51.03
2023-05-24T08:23:12.786Z,51.18
2023-05-24T08:25:41.402Z,51.63
2023-05-24T08:28:11.110Z,51.24
2023-05-24T08:30:39.500Z,50.99
2023-05-24T08:33:07.973Z,51.05
2023-05-24T08:35:37.072Z,51.13
2023-05-24T08:38:05.060Z,51.10
2023-05-24T08:40:34.901Z,52.65
2023-05-24T08:43:02.994Z,51.78
2023-05-24T08:45:31.948Z,51.63
2023-05-24T08:48:00.017Z,51.81
2023-05-24T08:50:28.680Z,51.66
2023-05-24T08:52:56.824Z,51.70
2023-05-24T08:55:24.907Z,51.54
2023-05-24T08:57:55.140Z,51.34
2023-05-24T09:00:24.035Z,51.40
2023-05-24T09:02:55.362Z,51.30
2023-05-24T09:05:23.407Z,51.33
2023-05-24T09:07:51.610Z,51.31
2023-05-24T09:10:21.582Z,51.19
2023-05-24T09:12:52.457Z,51.13
2023-05-24T09:15:22.524Z,51.00
2023-05-24T09:17:50.529Z,51.08
2023-05-24T09:20:19.282Z,51.04
2023-05-24T09:22:47.446Z,50.94
2023-05-24T09:25:15.714Z,51.01
2023-05-24T09:27:51.678Z,50.94
2023-05-24T09:30:21.204Z,50.70
2023-05-24T09:32:56.354Z,50.48
2023-05-24T09:35:24.471Z,50.68
2023-05-24T09:37:52.854Z,50.80
2023-05-24T09:40:20.952Z,50.66
2023-05-24T09:42:51.760Z,50.66
2023-05-24T09:45:22.205Z,50.64
2023-05-24T09:47:50.368Z,50.55
2023-05-24T09:50:18.436Z,50.41
2023-05-24T09:52:47.016Z,50.47
2023-05-24T09:55:15.644Z,50.22
2023-05-24T09:57:45.558Z,50.35
2023-05-24T10:00:17.836Z,50.34
2023-05-24T10:02:53.493Z,50.44
2023-05-24T10:05:22.425Z,50.42
2023-05-24T10:07:51.751Z,50.29
2023-05-24T10:10:21.235Z,50.53
2023-05-24T10:12:49.261Z,50.29
2023-05-24T10:15:19.164Z,50.41
2023-05-24T10:17:48.669Z,50.29
2023-05-24T10:20:18.799Z,50.11
2023-05-24T10:22:47.646Z,50.30
2023-05-24T10:25:17.261Z,50.22
2023-05-24T10:27:47.545Z,50.26
2023-05-24T10:30:18.179Z,50.30
2023-05-24T10:32:46.865Z,50.27
2023-05-24T10:35:16.376Z,50.18
2023-05-24T10:37:45.869Z,50.28
2023-05-24T10:40:25.430Z,50.30
2023-05-24T10:42:54.418Z,50.32
2023-05-24T10:45:35.379Z,50.34
2023-05-24T10:48:33.917Z,50.28
2023-05-24T10:51:23.996Z,50.17
2023-05-24T10:53:52.462Z,50.34
2023-05-24T10:56:21.178Z,50.56
2023-05-24T10:59:00.747Z,50.39
2023-05-24T11:01:29.756Z,50.57
2023-05-24T11:04:09.139Z,50.72
2023-05-24T11:06:51.537Z,50.56
2023-05-24T11:09:20.843Z,50.45
2023-05-24T11:11:50.693Z,50.48
2023-05-24T11:14:23.399Z,50.29
2023-05-24T11:16:52.194Z,50.30
2023-05-24T11:19:21.912Z,50.13
2023-05-24T11:21:52.512Z,50.36
2023-05-24T11:24:22.136Z,50.56
2023-05-24T11:26:52.672Z,50.31
2023-05-24T11:29:22.479Z,50.41
2023-05-24T11:31:51.756Z,50.47
2023-05-24T11:34:20.163Z,50.44
2023-05-24T11:36:48.968Z,50.50
2023-05-24T11:39:18.400Z,50.31
2023-05-24T11:41:46.989Z,50.81
2023-05-24T11:44:18.170Z,50.47
2023-05-24T11:46:46.955Z,50.41
2023-05-24T11:49:16.581Z,50.30
2023-05-24T11:51:45.715Z,50.33
2023-05-24T11:54:13.869Z,50.41
2023-05-24T11:56:43.970Z,50.50
2023-05-24T11:59:15.812Z,50.36
2023-05-24T12:01:44.108Z,50.32
2023-05-24T12:04:12.913Z,50.58
2023-05-24T12:06:42.136Z,50.44
2023-05-24T12:09:13.983Z,50.68
2023-05-24T12:11:45.154Z,50.47
2023-05-24T12:14:13.898Z,50.46
2023-05-24T12:16:43.038Z,50.67
2023-05-24T12:19:31.451Z,50.63
2023-05-24T12:22:00.977Z,51.05
2023-05-24T12:24:29.616Z,50.65
2023-05-24T12:27:02.095Z,50.51
2023-05-24T12:29:34.871Z,50.26
2023-05-24T12:32:03.168Z,50.04
2023-05-24T12:34:31.210Z,50.32
2023-05-24T12:37:00.533Z,50.00
2023-05-24T12:39:32.141Z,50.06
2023-05-24T12:42:03.427Z,49.86
2023-05-24T12:44:31.698Z,50.00
2023-05-24T12:47:01.023Z,49.99
2023-05-24T12:49:29.008Z,50.03
2023-05-24T12:51:58.431Z,50.10
2023-05-24T12:54:27.942Z,50.03
2023-05-24T12:56:57.582Z,49.89
2023-05-24T12:59:27.882Z,49.66
2023-05-24T13:01:55.867Z,49.66
2023-05-24T13:04:27.107Z,49.78
2023-05-24T13:06:55.611Z,49.91
2023-05-24T13:09:24.507Z,49.69
2023-05-24T13:11:54.201Z,49.51
2023-05-24T13:14:22.512Z,49.11
2023-05-24T13:16:52.640Z,49.05
2023-05-24T13:19:20.811Z,49.03
2023-05-24T13:21:49.563Z,48.97
2023-05-24T13:24:17.650Z,48.88
2023-05-24T13:26:46.147Z,48.99
2023-05-24T13:31:46.449Z,49.07
2023-05-24T13:34:16.759Z,49.11
2023-05-24T13:36:46.373Z,49.23
2023-05-24T13:39:16.594Z,49.04
2023-05-24T13:41:46.758Z,49.08
2023-05-24T13:44:14.881Z,49.03
2023-05-24T13:46:43.861Z,48.98
2023-05-24T13:49:12.211Z,48.79
2023-05-24T13:51:42.258Z,48.99
2023-05-24T13:54:11.104Z,48.92
2023-05-24T13:56:39.950Z,49.05
2023-05-24T13:59:09.412Z,49.00
2023-05-24T14:01:39.390Z,48.77
2023-05-24T14:04:07.980Z,48.68
2023-05-24T14:06:38.234Z,48.90
2023-05-24T14:09:08.492Z,48.82
2023-05-24T14:11:38.560Z,48.75
2023-05-24T14:14:57.771Z,48.63
2023-05-24T14:16:56.343Z,48.64
2023-05-24T14:19:24.668Z,48.53
2023-05-24T14:21:53.506Z,48.28
2023-05-24T14:24:23.917Z,48.21
2023-05-24T14:26:52.073Z,48.42
2023-05-24T14:29:20.969Z,48.58
2023-05-24T14:31:49.323Z,48.51
2023-05-24T14:34:18.242Z,48.51
2023-05-24T14:36:48.069Z,48.42
2023-05-24T14:39:16.131Z,48.30
2023-05-24T14:41:46.552Z,48.27
2023-05-24T14:44:14.534Z,48.23
2023-05-24T14:46:46.562Z,48.14
2023-05-24T14:49:14.531Z,48.08
2023-05-24T14:51:43.546Z,48.06
2023-05-24T14:54:12.270Z,47.84
2023-05-24T14:56:41.320Z,48.21
2023-05-24T14:59:11.946Z,47.98
2023-05-24T15:01:40.748Z,47.86
2023-05-24T15:04:10.041Z,47.93
2023-05-24T15:06:38.740Z,47.93
2023-05-24T15:09:08.736Z,47.93
2023-05-24T15:11:38.528Z,47.71
2023-05-24T15:14:07.411Z,47.72
2023-05-24T15:16:37.544Z,47.89
2023-05-24T15:19:05.710Z,47.59
2023-05-24T15:21:33.740Z,47.57
2023-05-24T15:24:02.600Z,47.51
2023-05-24T15:26:30.767Z,47.65
2023-05-24T15:29:03.338Z,47.90
2023-05-24T15:31:31.394Z,47.71
2023-05-24T15:34:00.798Z,47.71
2023-05-24T15:36:30.332Z,47.61
2023-05-24T15:38:58.293Z,47.75
2023-05-24T15:41:28.220Z,47.71
2023-05-24T15:43:56.289Z,47.64
2023-05-24T15:46:24.365Z,47.72
2023-05-24T15:48:53.172Z,47.99
2023-05-24T15:52:01.526Z,47.93
2023-05-24T15:54:12.013Z,47.92
2023-05-24T15:56:40.081Z,48.10
2023-05-24T15:59:08.118Z,48.16
2023-05-24T16:01:37.839Z,48.07
2023-05-24T16:04:05.922Z,47.97
2023-05-24T16:06:37.432Z,48.01
2023-05-24T16:09:07.204Z,47.94
2023-05-24T16:11:38.282Z,47.70
2023-05-24T16:14:06.570Z,47.96
2023-05-24T16:16:34.776Z,48.37
2023-05-24T16:19:04.151Z,48.04
2023-05-24T16:21:32.918Z,48.12
2023-05-24T16:24:04.240Z,47.71
2023-05-24T16:26:32.580Z,48.02
2023-05-24T16:29:04.801Z,48.06
2023-05-24T16:31:33.760Z,48.02
2023-05-24T16:34:01.906Z,47.99
2023-05-24T16:36:31.902Z,47.68
2023-05-24T16:38:59.932Z,47.65
2023-05-24T16:41:35.626Z,47.76
2023-05-24T16:44:03.724Z,48.03
2023-05-24T16:46:31.814Z,47.74
2023-05-24T16:49:01.907Z,47.91
2023-05-24T16:51:30.200Z,47.89
2023-05-24T16:53:59.008Z,47.99
2023-05-24T16:56:27.309Z,47.92
2023-05-24T16:58:58.102Z,47.99
2023-05-24T17:01:26.124Z,48.21
2023-05-24T17:03:54.329Z,48.28
2023-05-24T17:06:23.176Z,48.25
2023-05-24T17:08:51.182Z,48.19
2023-05-24T17:11:21.671Z,48.18
2023-05-24T17:13:50.708Z,48.37
2023-05-24T17:16:22.514Z,48.47
2023-05-24T17:18:51.023Z,48.70
2023-05-24T17:21:19.009Z,49.00
2023-05-24T17:23:47.797Z,49.74
2023-05-24T17:26:15.991Z,48.96
2023-05-24T17:28:51.292Z,49.21
2023-05-24T17:31:20.917Z,49.34
2023-05-24T17:33:49.005Z,49.43
2023-05-24T17:36:17.942Z,49.31
2023-05-24T17:38:46.005Z,49.42
2023-05-24T17:41:14.876Z,49.30
2023-05-24T17:43:42.927Z,49.43
2023-05-24T17:46:13.184Z,49.40
2023-05-24T17:48:43.750Z,49.41
2023-05-24T17:51:11.794Z,49.44
2023-05-24T17:53:41.892Z,49.33
2023-05-24T17:56:09.967Z,49.43
2023-05-24T17:58:38.037Z,49.46
2023-05-24T18:01:07.860Z,49.67
2023-05-24T18:03:36.916Z,49.43
2023-05-24T18:06:07.998Z,49.54
2023-05-24T18:08:38.132Z,49.50
2023-05-24T18:11:10.573Z,49.57
2023-05-24T18:13:44.960Z,49.60
2023-05-24T18:16:14.150Z,49.73
2023-05-24T18:18:43.891Z,49.77
2023-05-24T18:21:16.908Z,49.73
2023-05-24T18:23:44.989Z,50.04
2023-05-24T18:26:13.059Z,49.70
2023-05-24T18:28:42.896Z,49.59
2023-05-24T18:31:11.465Z,49.72
2023-05-24T18:33:41.295Z,49.65
2023-05-24T18:36:09.505Z,49.78
2023-05-24T18:38:40.199Z,49.95
2023-05-24T18:41:11.268Z,50.03
2023-05-24T18:43:39.269Z,49.91
2023-05-24T18:46:09.377Z,49.66
2023-05-24T18:48:37.300Z,49.79
2023-05-24T18:51:06.646Z,49.43
2023-05-24T18:53:38.368Z,49.85
2023-05-24T18:56:07.985Z,49.42
2023-05-24T18:58:36.939Z,49.84
2023-05-24T19:01:05.020Z,49.75
2023-05-24T19:03:34.099Z,49.90
2023-05-24T19:06:02.363Z,50.01
2023-05-24T19:08:31.491Z,49.87
2023-05-24T19:11:00.616Z,49.97
2023-05-24T19:13:34.393Z,49.82
2023-05-24T19:16:02.482Z,50.07
2023-05-24T19:18:47.367Z,49.90
2023-05-24T19:21:17.632Z,49.77
2023-05-24T19:23:48.613Z,49.73
2023-05-24T19:26:18.667Z,49.71
2023-05-24T19:28:52.448Z,49.94
2023-05-24T19:31:20.523Z,49.86
2023-05-24T19:33:59.965Z,49.94
2023-05-24T19:36:36.281Z,49.95
2023-05-24T19:39:06.444Z,50.22
2023-05-24T19:41:38.266Z,50.11
2023-05-24T19:44:07.664Z,50.38
2023-05-24T19:46:37.082Z,50.30
2023-05-24T19:49:08.303Z,50.26
2023-05-24T19:51:37.515Z,50.40
2023-05-24T19:54:10.440Z,50.53
2023-05-24T19:56:38.788Z,50.25
2023-05-24T19:59:09.697Z,50.24
2023-05-24T20:01:37.760Z,50.22
2023-05-24T20:04:05.774Z,49.91
2023-05-24T20:06:35.146Z,49.89
2023-05-24T20:09:03.721Z,49.97
2023-05-24T20:11:34.412Z,50.07
2023-05-24T20:14:02.528Z,50.01
2023-05-24T20:16:32.149Z,50.01
2023-05-24T20:19:02.586Z,49.88
2023-05-24T20:21:32.820Z,49.84
2023-05-24T20:24:02.154Z,49.91
2023-05-24T20:26:30.082Z,49.85
2023-05-24T20:28:58.148Z,50.11
2023-05-24T20:31:29.408Z,49.81
2023-05-24T20:33:58.803Z,49.88
2023-05-24T20:36:28.454Z,50.07
2023-05-24T20:38:56.539Z,49.74
2023-05-24T20:41:25.928Z,49.67
2023-05-24T20:43:53.971Z,49.77
2023-05-24T20:46:25.818Z,49.73
2023-05-24T20:48:54.100Z,49.74
2023-05-24T20:51:25.635Z,49.66
2023-05-24T20:53:53.918Z,49.70
2023-05-24T20:56:28.393Z,49.71
2023-05-24T20:59:00.214Z,49.74
2023-05-24T21:01:29.313Z,49.90
2023-05-24T21:03:57.598Z,49.83
2023-05-24T21:06:28.333Z,49.74
2023-05-24T21:08:58.947Z,49.77
2023-05-24T21:11:31.148Z,49.64
2023-05-24T21:13:59.986Z,49.60
2023-05-24T21:16:28.327Z,49.58
2023-05-24T21:18:57.779Z,49.64
2023-05-24T21:21:27.161Z,49.57
2023-05-24T21:23:57.234Z,49.91
2023-05-24T21:26:25.432Z,49.52
2023-05-24T21:28:53.629Z,49.67
2023-05-24T21:31:24.703Z,49.68
2023-05-24T21:33:53.421Z,49.69
2023-05-24T21:36:21.465Z,49.69
2023-05-24T21:38:51.989Z,49.61
2023-05-24T21:41:21.138Z,49.68
2023-05-24T21:43:49.818Z,49.78
2023-05-24T21:46:18.791Z,49.73
2023-05-24T21:48:48.972Z,49.67
2023-05-24T21:51:16.986Z,49.70
2023-05-24T21:54:05.545Z,49.97
2023-05-24T21:56:33.659Z,49.68
2023-05-24T21:59:02.495Z,49.59
2023-05-24T22:01:30.687Z,49.63
2023-05-24T22:04:00.648Z,49.66
2023-05-24T22:06:28.779Z,49.72
2023-05-24T22:09:04.229Z,49.65
2023-05-24T22:11:35.239Z,49.66
2023-05-24T22:14:03.557Z,49.75
2023-05-24T22:16:31.605Z,49.76
2023-05-24T22:19:01.342Z,49.64
2023-05-24T22:21:32.998Z,49.67
2023-05-24T22:24:01.975Z,49.76
2023-05-24T22:26:30.667Z,49.74
2023-05-24T22:29:04.124Z,49.70
2023-05-24T22:31:33.460Z,49.66
2023-05-24T22:34:02.677Z,49.76
2023-05-24T22:36:33.128Z,49.71
2023-05-24T22:39:01.957Z,49.67
2023-05-24T22:41:29.973Z,49.63
2023-05-24T22:43:59.734Z,49.56
2023-05-24T22:46:27.948Z,49.54
2023-05-24T22:48:57.761Z,49.63
2023-05-24T22:51:26.303Z,49.57
2023-05-24T22:53:54.840Z,49.60
2023-05-24T22:56:23.358Z,49.72
2023-05-24T22:58:53.224Z,49.69
2023-05-24T23:01:22.696Z,49.53
2023-05-24T23:03:50.898Z,49.64
2023-05-24T23:06:21.164Z,49.58
2023-05-24T23:08:50.164Z,49.63
2023-05-24T23:11:18.212Z,49.52
2023-05-24T23:13:46.470Z,49.57
2023-05-24T23:16:18.006Z,49.60
2023-05-24T23:18:47.463Z,49.66
2023-05-24T23:21:16.707Z,49.66
2023-05-24T23:23:46.314Z,49.71
2023-05-24T23:26:14.445Z,49.67
2023-05-24T23:28:43.233Z,49.65
2023-05-24T23:31:12.342Z,49.70
2023-05-24T23:33:40.286Z,49.67
2023-05-24T23:36:10.569Z,49.58
2023-05-24T23:38:38.630Z,49.61
2023-05-24T23:41:06.806Z,49.63
2023-05-24T23:43:35.037Z,49.70
2023-05-24T23:46:03.131Z,49.55
2023-05-24T23:48:31.205Z,49.56
2023-05-24T23:50:59.152Z,49.54
2023-05-24T23:53:28.518Z,49.60
2023-05-24T23:55:57.068Z,49.60
2023-05-24T23:58:25.058Z,49.67
